sensor_id;sensor_type;location;lat;lon;timestamp;P1;durP1;ratioP1;P2;durP2;ratioP2
13309;SDS011;6723;48.256;16.402;2023-08-31T00:00:42;2.53;;;2.33;;
13309;SDS011;6723;48.256;16.402;2023-08-31T00:03:10;3.33;;;2.20;;
13309;SDS011;6723;48.256;16.402;2023-08-31T00:05:40;4.03;;;2.27;;
13309;SDS011;6723;48.256;16.402;2023-08-31T00:08:07;2.87;;;2.53;;
13309;SDS011;6723;48.256;16.402;2023-08-31T00:10:33;4.97;;;2.30;;
13309;SDS011;6723;48.256;16.402;2023-08-31T00:13:00;2.83;;;2.63;;
13309;SDS011;6723;48.256;16.402;2023-08-31T00:15:31;2.57;;;2.37;;
13309;SDS011;6723;48.256;16.402;2023-08-31T00:18:01;2.57;;;2.20;;
13309;SDS011;6723;48.256;16.402;2023-08-31T00:20:29;3.30;;;2.30;;
13309;SDS011;6723;48.256;16.402;2023-08-31T00:22:56;3.23;;;2.33;;
13309;SDS011;6723;48.256;16.402;2023-08-31T00:25:21;2.60;;;2.30;;
13309;SDS011;6723;48.256;16.402;2023-08-31T00:27:47;2.57;;;2.37;;
13309;SDS011;6723;48.256;16.402;2023-08-31T00:30:13;2.50;;;2.30;;
13309;SDS011;6723;48.256;16.402;2023-08-31T00:32:40;2.37;;;2.13;;
13309;SDS011;6723;48.256;16.402;2023-08-31T00:35:08;2.60;;;2.40;;
13309;SDS011;6723;48.256;16.402;2023-08-31T00:37:34;2.80;;;2.50;;
13309;SDS011;6723;48.256;16.402;2023-08-31T00:40:00;2.50;;;2.30;;
13309;SDS011;6723;48.256;16.402;2023-08-31T00:42:27;3.13;;;2.37;;
13309;SDS011;6723;48.256;16.402;2023-08-31T00:44:54;3.90;;;2.40;;
13309;SDS011;6723;48.256;16.402;2023-08-31T00:47:21;3.23;;;2.30;;
13309;SDS011;6723;48.256;16.402;2023-08-31T00:49:47;3.43;;;2.67;;
13309;SDS011;6723;48.256;16.402;2023-08-31T00:52:14;3.13;;;2.80;;
13309;SDS011;6723;48.256;16.402;2023-08-31T00:54:41;2.97;;;2.40;;
13309;SDS011;6723;48.256;16.402;2023-08-31T00:57:07;2.50;;;2.30;;
13309;SDS011;6723;48.256;16.402;2023-08-31T00:59:34;2.93;;;2.53;;
13309;SDS011;6723;48.256;16.402;2023-08-31T01:15:17;2.83;;;2.63;;
13309;SDS011;6723;48.256;16.402;2023-08-31T01:17:47;3.03;;;2.67;;
13309;SDS011;6723;48.256;16.402;2023-08-31T01:20:17;3.40;;;3.10;;
13309;SDS011;6723;48.256;16.402;2023-08-31T01:22:55;3.40;;;2.80;;
13309;SDS011;6723;48.256;16.402;2023-08-31T01:25:29;3.20;;;2.90;;
13309;SDS011;6723;48.256;16.402;2023-08-31T01:27:58;2.80;;;2.60;;
13309;SDS011;6723;48.256;16.402;2023-08-31T01:30:29;3.00;;;2.80;;
13309;SDS011;6723;48.256;16.402;2023-08-31T01:32:59;2.50;;;2.30;;
13309;SDS011;6723;48.256;16.402;2023-08-31T01:35:26;3.20;;;2.90;;
13309;SDS011;6723;48.256;16.402;2023-08-31T01:37:53;3.77;;;2.63;;
13309;SDS011;6723;48.256;16.402;2023-08-31T01:40:35;3.00;;;2.80;;
13309;SDS011;6723;48.256;16.402;2023-08-31T01:43:02;3.97;;;3.30;;
13309;SDS011;6723;48.256;16.402;2023-08-31T01:45:30;4.33;;;3.50;;
13309;SDS011;6723;48.256;16.402;2023-08-31T01:48:02;4.70;;;3.80;;
13309;SDS011;6723;48.256;16.402;2023-08-31T01:50:29;3.80;;;3.20;;
13309;SDS011;6723;48.256;16.402;2023-08-31T01:52:55;4.50;;;3.40;;
13309;SDS011;6723;48.256;16.402;2023-08-31T01:55:21;3.70;;;3.40;;
13309;SDS011;6723;48.256;16.402;2023-08-31T01:57:48;4.23;;;3.83;;
13309;SDS011;6723;48.256;16.402;2023-08-31T02:00:14;4.07;;;3.67;;
13309;SDS011;6723;48.256;16.402;2023-08-31T02:02:41;4.37;;;4.00;;
13309;SDS011;6723;48.256;16.402;2023-08-31T02:05:07;4.30;;;3.90;;
13309;SDS011;6723;48.256;16.402;2023-08-31T02:07:33;4.33;;;3.83;;
13309;SDS011;6723;48.256;16.402;2023-08-31T02:09:59;4.70;;;4.30;;
13309;SDS011;6723;48.256;16.402;2023-08-31T02:12:25;4.83;;;4.43;;
13309;SDS011;6723;48.256;16.402;2023-08-31T02:14:50;4.83;;;4.43;;
13309;SDS011;6723;48.256;16.402;2023-08-31T02:17:16;4.60;;;4.20;;
13309;SDS011;6723;48.256;16.402;2023-08-31T02:19:42;6.00;;;5.20;;
13309;SDS011;6723;48.256;16.402;2023-08-31T02:22:08;5.57;;;4.97;;
13309;SDS011;6723;48.256;16.402;2023-08-31T02:24:34;5.00;;;4.60;;
13309;SDS011;6723;48.256;16.402;2023-08-31T02:26:59;6.00;;;5.40;;
13309;SDS011;6723;48.256;16.402;2023-08-31T02:29:25;5.63;;;5.13;;
13309;SDS011;6723;48.256;16.402;2023-08-31T02:31:51;6.00;;;5.40;;
13309;SDS011;6723;48.256;16.402;2023-08-31T02:34:17;6.50;;;5.90;;
13309;SDS011;6723;48.256;16.402;2023-08-31T02:36:43;8.00;;;6.70;;
13309;SDS011;6723;48.256;16.402;2023-08-31T02:39:08;6.73;;;6.13;;
13309;SDS011;6723;48.256;16.402;2023-08-31T02:41:34;6.90;;;6.23;;
13309;SDS011;6723;48.256;16.402;2023-08-31T02:44:00;7.07;;;6.43;;
13309;SDS011;6723;48.256;16.402;2023-08-31T02:46:25;8.57;;;6.60;;
13309;SDS011;6723;48.256;16.402;2023-08-31T02:48:51;7.77;;;6.90;;
13309;SDS011;6723;48.256;16.402;2023-08-31T02:51:17;7.70;;;7.00;;
13309;SDS011;6723;48.256;16.402;2023-08-31T02:53:42;7.00;;;6.33;;
13309;SDS011;6723;48.256;16.402;2023-08-31T02:56:08;7.43;;;6.60;;
13309;SDS011;6723;48.256;16.402;2023-08-31T02:58:34;8.40;;;7.07;;
13309;SDS011;6723;48.256;16.402;2023-08-31T03:01:07;7.43;;;6.80;;
13309;SDS011;6723;48.256;16.402;2023-08-31T03:03:37;8.63;;;6.50;;
13309;SDS011;6723;48.256;16.402;2023-08-31T03:06:05;7.87;;;7.17;;
13309;SDS011;6723;48.256;16.402;2023-08-31T03:08:36;8.00;;;7.20;;
13309;SDS011;6723;48.256;16.402;2023-08-31T03:11:02;10.23;;;7.87;;
13309;SDS011;6723;48.256;16.402;2023-08-31T03:13:30;8.63;;;6.73;;
13309;SDS011;6723;48.256;16.402;2023-08-31T03:15:56;7.47;;;6.77;;
13309;SDS011;6723;48.256;16.402;2023-08-31T03:18:23;7.30;;;6.60;;
13309;SDS011;6723;48.256;16.402;2023-08-31T03:20:49;7.33;;;6.60;;
13309;SDS011;6723;48.256;16.402;2023-08-31T03:23:14;7.77;;;5.20;;
13309;SDS011;6723;48.256;16.402;2023-08-31T03:25:40;6.00;;;5.40;;
13309;SDS011;6723;48.256;16.402;2023-08-31T03:28:06;5.57;;;5.07;;
13309;SDS011;6723;48.256;16.402;2023-08-31T03:30:33;5.07;;;4.60;;
13309;SDS011;6723;48.256;16.402;2023-08-31T03:32:58;4.53;;;4.13;;
13309;SDS011;6723;48.256;16.402;2023-08-31T03:35:24;4.70;;;4.30;;
13309;SDS011;6723;48.256;16.402;2023-08-31T03:37:55;3.77;;;3.47;;
13309;SDS011;6723;48.256;16.402;2023-08-31T03:40:21;4.07;;;3.67;;
13309;SDS011;6723;48.256;16.402;2023-08-31T03:42:50;3.60;;;3.30;;
13309;SDS011;6723;48.256;16.402;2023-08-31T03:45:17;4.10;;;3.70;;
13309;SDS011;6723;48.256;16.402;2023-08-31T03:47:43;3.27;;;3.03;;
13309;SDS011;6723;48.256;16.402;2023-08-31T03:50:10;3.90;;;3.60;;
13309;SDS011;6723;48.256;16.402;2023-08-31T03:52:35;3.60;;;3.30;;
13309;SDS011;6723;48.256;16.402;2023-08-31T03:55:01;4.40;;;3.43;;
13309;SDS011;6723;48.256;16.402;2023-08-31T03:57:27;4.17;;;3.43;;
13309;SDS011;6723;48.256;16.402;2023-08-31T03:59:52;3.77;;;2.97;;
13309;SDS011;6723;48.256;16.402;2023-08-31T04:02:18;3.70;;;3.40;;
13309;SDS011;6723;48.256;16.402;2023-08-31T04:04:44;3.33;;;2.93;;
13309;SDS011;6723;48.256;16.402;2023-08-31T04:07:10;3.63;;;3.33;;
13309;SDS011;6723;48.256;16.402;2023-08-31T04:09:35;4.40;;;4.00;;
13309;SDS011;6723;48.256;16.402;2023-08-31T04:12:01;3.93;;;3.53;;
13309;SDS011;6723;48.256;16.402;2023-08-31T04:14:27;3.50;;;3.20;;
13309;SDS011;6723;48.256;16.402;2023-08-31T04:16:56;3.50;;;3.13;;
13309;SDS011;6723;48.256;16.402;2023-08-31T04:19:22;3.80;;;3.40;;
13309;SDS011;6723;48.256;16.402;2023-08-31T04:21:48;3.83;;;3.50;;
13309;SDS011;6723;48.256;16.402;2023-08-31T04:24:14;3.53;;;3.23;;
13309;SDS011;6723;48.256;16.402;2023-08-31T04:26:40;3.47;;;3.17;;
13309;SDS011;6723;48.256;16.402;2023-08-31T04:29:05;3.30;;;3.10;;
13309;SDS011;6723;48.256;16.402;2023-08-31T04:31:32;4.07;;;2.93;;
13309;SDS011;6723;48.256;16.402;2023-08-31T04:33:58;3.10;;;2.90;;
13309;SDS011;6723;48.256;16.402;2023-08-31T04:36:24;3.90;;;2.90;;
13309;SDS011;6723;48.256;16.402;2023-08-31T04:38:53;3.07;;;2.87;;
13309;SDS011;6723;48.256;16.402;2023-08-31T04:41:18;2.97;;;2.77;;
13309;SDS011;6723;48.256;16.402;2023-08-31T04:43:44;4.67;;;2.90;;
13309;SDS011;6723;48.256;16.402;2023-08-31T04:46:13;3.40;;;3.10;;
13309;SDS011;6723;48.256;16.402;2023-08-31T04:48:40;2.60;;;2.40;;
13309;SDS011;6723;48.256;16.402;2023-08-31T04:51:05;2.30;;;2.10;;
13309;SDS011;6723;48.256;16.402;2023-08-31T04:53:31;2.70;;;2.50;;
13309;SDS011;6723;48.256;16.402;2023-08-31T04:55:57;3.67;;;2.50;;
13309;SDS011;6723;48.256;16.402;2023-08-31T04:58:23;3.07;;;2.53;;
13309;SDS011;6723;48.256;16.402;2023-08-31T05:00:51;2.70;;;2.50;;
13309;SDS011;6723;48.256;16.402;2023-08-31T05:03:16;2.87;;;2.60;;
13309;SDS011;6723;48.256;16.402;2023-08-31T05:05:42;3.13;;;2.37;;
13309;SDS011;6723;48.256;16.402;2023-08-31T05:08:09;3.10;;;2.80;;
13309;SDS011;6723;48.256;16.402;2023-08-31T05:10:34;3.53;;;2.63;;
13309;SDS011;6723;48.256;16.402;2023-08-31T05:13:00;3.70;;;2.80;;
13309;SDS011;6723;48.256;16.402;2023-08-31T05:15:27;2.90;;;2.70;;
13309;SDS011;6723;48.256;16.402;2023-08-31T05:17:54;3.20;;;2.50;;
13309;SDS011;6723;48.256;16.402;2023-08-31T05:20:20;5.17;;;2.50;;
13309;SDS011;6723;48.256;16.402;2023-08-31T05:22:47;2.90;;;2.33;;
13309;SDS011;6723;48.256;16.402;2023-08-31T05:25:13;3.03;;;2.77;;
13309;SDS011;6723;48.256;16.402;2023-08-31T05:27:39;3.00;;;2.80;;
13309;SDS011;6723;48.256;16.402;2023-08-31T05:30:05;3.53;;;2.60;;
13309;SDS011;6723;48.256;16.402;2023-08-31T05:32:31;2.53;;;2.33;;
13309;SDS011;6723;48.256;16.402;2023-08-31T05:34:57;4.93;;;2.70;;
13309;SDS011;6723;48.256;16.402;2023-08-31T05:37:24;3.20;;;2.40;;
13309;SDS011;6723;48.256;16.402;2023-08-31T05:39:50;4.80;;;2.00;;
13309;SDS011;6723;48.256;16.402;2023-08-31T05:42:17;3.53;;;2.40;;
13309;SDS011;6723;48.256;16.402;2023-08-31T05:44:43;2.83;;;2.47;;
13309;SDS011;6723;48.256;16.402;2023-08-31T05:47:09;2.80;;;2.43;;
13309;SDS011;6723;48.256;16.402;2023-08-31T05:49:35;3.20;;;2.50;;
13309;SDS011;6723;48.256;16.402;2023-08-31T05:52:01;4.67;;;2.70;;
13309;SDS011;6723;48.256;16.402;2023-08-31T05:54:27;5.77;;;3.00;;
13309;SDS011;6723;48.256;16.402;2023-08-31T05:56:52;5.60;;;3.30;;
13309;SDS011;6723;48.256;16.402;2023-08-31T05:59:18;10.50;;;3.00;;
13309;SDS011;6723;48.256;16.402;2023-08-31T06:01:44;4.33;;;2.80;;
13309;SDS011;6723;48.256;16.402;2023-08-31T06:04:10;5.97;;;3.10;;
13309;SDS011;6723;48.256;16.402;2023-08-31T06:06:36;4.40;;;2.70;;
13309;SDS011;6723;48.256;16.402;2023-08-31T06:09:02;4.23;;;2.77;;
13309;SDS011;6723;48.256;16.402;2023-08-31T06:11:30;5.10;;;2.70;;
13309;SDS011;6723;48.256;16.402;2023-08-31T06:13:55;6.47;;;2.43;;
13309;SDS011;6723;48.256;16.402;2023-08-31T06:16:21;3.87;;;2.70;;
13309;SDS011;6723;48.256;16.402;2023-08-31T06:18:49;3.40;;;2.17;;
13309;SDS011;6723;48.256;16.402;2023-08-31T06:21:14;2.73;;;2.53;;
13309;SDS011;6723;48.256;16.402;2023-08-31T06:23:40;3.17;;;2.50;;
13309;SDS011;6723;48.256;16.402;2023-08-31T06:26:06;2.80;;;2.43;;
13309;SDS011;6723;48.256;16.402;2023-08-31T06:28:32;1.93;;;1.83;;
13309;SDS011;6723;48.256;16.402;2023-08-31T06:30:57;2.77;;;2.00;;
13309;SDS011;6723;48.256;16.402;2023-08-31T06:33:24;4.37;;;1.97;;
13309;SDS011;6723;48.256;16.402;2023-08-31T06:35:50;2.53;;;1.80;;
13309;SDS011;6723;48.256;16.402;2023-08-31T06:38:19;3.03;;;1.80;;
13309;SDS011;6723;48.256;16.402;2023-08-31T06:40:46;2.23;;;1.60;;
13309;SDS011;6723;48.256;16.402;2023-08-31T06:43:12;2.67;;;1.80;;
13309;SDS011;6723;48.256;16.402;2023-08-31T06:45:38;1.83;;;1.67;;
13309;SDS011;6723;48.256;16.402;2023-08-31T06:48:03;3.43;;;2.13;;
13309;SDS011;6723;48.256;16.402;2023-08-31T06:50:30;3.43;;;1.97;;
13309;SDS011;6723;48.256;16.402;2023-08-31T06:52:55;2.40;;;1.70;;
13309;SDS011;6723;48.256;16.402;2023-08-31T06:55:21;1.53;;;1.43;;
13309;SDS011;6723;48.256;16.402;2023-08-31T06:57:48;2.43;;;1.30;;
13309;SDS011;6723;48.256;16.402;2023-08-31T07:00:13;1.40;;;1.30;;
13309;SDS011;6723;48.256;16.402;2023-08-31T07:02:40;3.27;;;1.50;;
13309;SDS011;6723;48.256;16.402;2023-08-31T07:05:09;4.23;;;1.70;;
13309;SDS011;6723;48.256;16.402;2023-08-31T07:07:35;2.80;;;1.47;;
13309;SDS011;6723;48.256;16.402;2023-08-31T07:10:01;8.10;;;1.90;;
13309;SDS011;6723;48.256;16.402;2023-08-31T07:12:27;6.67;;;1.83;;
13309;SDS011;6723;48.256;16.402;2023-08-31T07:14:53;2.27;;;1.50;;
13309;SDS011;6723;48.256;16.402;2023-08-31T07:17:18;2.30;;;1.60;;
13309;SDS011;6723;48.256;16.402;2023-08-31T07:19:45;2.77;;;1.67;;
13309;SDS011;6723;48.256;16.402;2023-08-31T07:22:11;3.07;;;1.83;;
13309;SDS011;6723;48.256;16.402;2023-08-31T07:24:37;1.70;;;1.60;;
13309;SDS011;6723;48.256;16.402;2023-08-31T07:27:03;2.20;;;1.40;;
13309;SDS011;6723;48.256;16.402;2023-08-31T07:29:30;2.37;;;1.50;;
13309;SDS011;6723;48.256;16.402;2023-08-31T07:31:56;2.10;;;1.80;;
13309;SDS011;6723;48.256;16.402;2023-08-31T07:34:23;2.20;;;1.90;;
13309;SDS011;6723;48.256;16.402;2023-08-31T07:36:49;3.00;;;1.80;;
13309;SDS011;6723;48.256;16.402;2023-08-31T07:39:15;2.77;;;1.73;;
13309;SDS011;6723;48.256;16.402;2023-08-31T07:41:44;1.70;;;1.60;;
13309;SDS011;6723;48.256;16.402;2023-08-31T07:44:10;3.00;;;1.67;;
13309;SDS011;6723;48.256;16.402;2023-08-31T07:46:35;2.17;;;1.70;;
13309;SDS011;6723;48.256;16.402;2023-08-31T07:49:01;1.85;;;1.50;;
13309;SDS011;6723;48.256;16.402;2023-08-31T07:51:28;1.95;;;1.60;;
13309;SDS011;6723;48.256;16.402;2023-08-31T07:53:54;2.65;;;1.73;;
13309;SDS011;6723;48.256;16.402;2023-08-31T07:56:19;2.42;;;1.90;;
13309;SDS011;6723;48.256;16.402;2023-08-31T07:58:46;2.08;;;1.63;;
13309;SDS011;6723;48.256;16.402;2023-08-31T08:01:12;3.35;;;1.83;;
13309;SDS011;6723;48.256;16.402;2023-08-31T08:03:37;1.77;;;1.63;;
13309;SDS011;6723;48.256;16.402;2023-08-31T08:06:03;1.92;;;1.75;;
13309;SDS011;6723;48.256;16.402;2023-08-31T08:08:29;2.88;;;1.50;;
13309;SDS011;6723;48.256;16.402;2023-08-31T08:10:55;3.67;;;1.60;;
13309;SDS011;6723;48.256;16.402;2023-08-31T08:13:21;4.78;;;1.90;;
13309;SDS011;6723;48.256;16.402;2023-08-31T08:15:47;1.70;;;1.60;;
13309;SDS011;6723;48.256;16.402;2023-08-31T08:18:12;2.22;;;1.70;;
13309;SDS011;6723;48.256;16.402;2023-08-31T08:20:38;2.75;;;1.75;;
13309;SDS011;6723;48.256;16.402;2023-08-31T08:23:07;1.98;;;1.88;;
13309;SDS011;6723;48.256;16.402;2023-08-31T08:25:33;2.78;;;1.88;;
13309;SDS011;6723;48.256;16.402;2023-08-31T08:27:59;4.75;;;1.80;;
13309;SDS011;6723;48.256;16.402;2023-08-31T08:30:25;5.15;;;2.03;;
13309;SDS011;6723;48.256;16.402;2023-08-31T08:32:51;2.03;;;1.73;;
13309;SDS011;6723;48.256;16.402;2023-08-31T08:35:17;1.80;;;1.70;;
13309;SDS011;6723;48.256;16.402;2023-08-31T08:37:43;2.53;;;1.80;;
13309;SDS011;6723;48.256;16.402;2023-08-31T08:40:09;1.92;;;1.75;;
13309;SDS011;6723;48.256;16.402;2023-08-31T08:42:37;3.03;;;1.40;;
13309;SDS011;6723;48.256;16.402;2023-08-31T08:45:16;3.42;;;2.00;;
13309;SDS011;6723;48.256;16.402;2023-08-31T08:47:45;1.98;;;1.60;;
13309;SDS011;6723;48.256;16.402;2023-08-31T08:50:12;5.40;;;2.13;;
13309;SDS011;6723;48.256;16.402;2023-08-31T08:52:39;3.17;;;2.00;;
13309;SDS011;6723;48.256;16.402;2023-08-31T08:55:07;2.75;;;2.13;;
13309;SDS011;6723;48.256;16.402;2023-08-31T08:57:34;3.70;;;2.22;;
13309;SDS011;6723;48.256;16.402;2023-08-31T09:00:01;2.95;;;2.17;;
13309;SDS011;6723;48.256;16.402;2023-08-31T09:02:28;1.90;;;1.80;;
13309;SDS011;6723;48.256;16.402;2023-08-31T09:04:54;1.90;;;1.80;;
13309;SDS011;6723;48.256;16.402;2023-08-31T09:07:22;1.93;;;1.83;;
13309;SDS011;6723;48.256;16.402;2023-08-31T09:09:49;2.30;;;2.10;;
13309;SDS011;6723;48.256;16.402;2023-08-31T09:12:16;2.07;;;1.93;;
13309;SDS011;6723;48.256;16.402;2023-08-31T09:14:42;2.97;;;2.00;;
13309;SDS011;6723;48.256;16.402;2023-08-31T09:17:08;2.87;;;2.03;;
13309;SDS011;6723;48.256;16.402;2023-08-31T09:19:34;3.00;;;1.63;;
13309;SDS011;6723;48.256;16.402;2023-08-31T09:22:00;2.60;;;1.70;;
13309;SDS011;6723;48.256;16.402;2023-08-31T09:24:27;2.27;;;1.80;;
13309;SDS011;6723;48.256;16.402;2023-08-31T09:26:56;2.30;;;1.70;;
13309;SDS011;6723;48.256;16.402;2023-08-31T09:29:23;4.27;;;1.80;;
13309;SDS011;6723;48.256;16.402;2023-08-31T09:31:50;6.93;;;2.33;;
13309;SDS011;6723;48.256;16.402;2023-08-31T09:34:16;3.77;;;2.10;;
13309;SDS011;6723;48.256;16.402;2023-08-31T09:36:43;2.10;;;1.90;;
13309;SDS011;6723;48.256;16.402;2023-08-31T09:39:09;2.80;;;1.73;;
13309;SDS011;6723;48.256;16.402;2023-08-31T09:41:57;2.40;;;1.50;;
13309;SDS011;6723;48.256;16.402;2023-08-31T09:44:24;7.80;;;2.10;;
13309;SDS011;6723;48.256;16.402;2023-08-31T09:46:50;3.53;;;1.73;;
13309;SDS011;6723;48.256;16.402;2023-08-31T09:49:17;1.80;;;1.70;;
13309;SDS011;6723;48.256;16.402;2023-08-31T09:51:46;4.40;;;1.80;;
13309;SDS011;6723;48.256;16.402;2023-08-31T09:54:14;1.70;;;1.60;;
13309;SDS011;6723;48.256;16.402;2023-08-31T09:56:42;2.17;;;1.57;;
13309;SDS011;6723;48.256;16.402;2023-08-31T09:59:10;1.93;;;1.50;;
13309;SDS011;6723;48.256;16.402;2023-08-31T10:01:39;1.97;;;1.60;;
13309;SDS011;6723;48.256;16.402;2023-08-31T10:04:06;1.70;;;1.60;;
13309;SDS011;6723;48.256;16.402;2023-08-31T10:06:40;1.83;;;1.73;;
13309;SDS011;6723;48.256;16.402;2023-08-31T10:09:06;1.50;;;1.40;;
13309;SDS011;6723;48.256;16.402;2023-08-31T10:11:37;1.83;;;1.57;;
13309;SDS011;6723;48.256;16.402;2023-08-31T10:14:04;3.53;;;1.60;;
13309;SDS011;6723;48.256;16.402;2023-08-31T10:16:30;1.67;;;1.57;;
13309;SDS011;6723;48.256;16.402;2023-08-31T10:18:58;1.70;;;1.60;;
13309;SDS011;6723;48.256;16.402;2023-08-31T10:21:24;1.60;;;1.50;;
13309;SDS011;6723;48.256;16.402;2023-08-31T10:23:50;1.50;;;1.40;;
13309;SDS011;6723;48.256;16.402;2023-08-31T10:26:24;1.83;;;1.40;;
13309;SDS011;6723;48.256;16.402;2023-08-31T10:28:54;1.67;;;1.30;;
13309;SDS011;6723;48.256;16.402;2023-08-31T10:31:22;3.50;;;1.40;;
13309;SDS011;6723;48.256;16.402;2023-08-31T10:33:56;1.40;;;1.30;;
13309;SDS011;6723;48.256;16.402;2023-08-31T10:39:18;1.50;;;1.40;;
13309;SDS011;6723;48.256;16.402;2023-08-31T10:41:51;2.03;;;1.40;;
13309;SDS011;6723;48.256;16.402;2023-08-31T10:44:25;1.30;;;1.20;;
13309;SDS011;6723;48.256;16.402;2023-08-31T10:46:52;2.07;;;1.30;;
13309;SDS011;6723;48.256;16.402;2023-08-31T10:49:22;1.33;;;1.23;;
13309;SDS011;6723;48.256;16.402;2023-08-31T10:52:14;1.80;;;1.50;;
13309;SDS011;6723;48.256;16.402;2023-08-31T10:54:45;1.30;;;1.20;;
13309;SDS011;6723;48.256;16.402;2023-08-31T10:57:12;2.00;;;1.50;;
13309;SDS011;6723;48.256;16.402;2023-08-31T10:59:50;1.47;;;1.30;;
13309;SDS011;6723;48.256;16.402;2023-08-31T11:05:06;1.60;;;1.50;;
13309;SDS011;6723;48.256;16.402;2023-08-31T11:07:33;1.73;;;1.50;;
13309;SDS011;6723;48.256;16.402;2023-08-31T11:12:35;3.03;;;1.53;;
13309;SDS011;6723;48.256;16.402;2023-08-31T11:15:02;1.50;;;1.40;;
13309;SDS011;6723;48.256;16.402;2023-08-31T11:17:29;1.50;;;1.40;;
13309;SDS011;6723;48.256;16.402;2023-08-31T11:19:59;2.20;;;1.53;;
13309;SDS011;6723;48.256;16.402;2023-08-31T11:22:26;1.83;;;1.50;;
13309;SDS011;6723;48.256;16.402;2023-08-31T11:24:52;1.50;;;1.40;;
13309;SDS011;6723;48.256;16.402;2023-08-31T11:27:19;2.50;;;1.37;;
13309;SDS011;6723;48.256;16.402;2023-08-31T11:29:46;1.50;;;1.27;;
13309;SDS011;6723;48.256;16.402;2023-08-31T11:32:12;1.73;;;1.43;;
13309;SDS011;6723;48.256;16.402;2023-08-31T11:34:42;1.67;;;1.40;;
13309;SDS011;6723;48.256;16.402;2023-08-31T11:37:12;2.37;;;1.47;;
13309;SDS011;6723;48.256;16.402;2023-08-31T11:39:51;2.73;;;1.30;;
13309;SDS011;6723;48.256;16.402;2023-08-31T11:42:19;2.53;;;1.20;;
13309;SDS011;6723;48.256;16.402;2023-08-31T11:44:49;1.67;;;1.50;;
13309;SDS011;6723;48.256;16.402;2023-08-31T11:47:17;1.67;;;1.37;;
13309;SDS011;6723;48.256;16.402;2023-08-31T11:49:44;3.10;;;1.57;;
13309;SDS011;6723;48.256;16.402;2023-08-31T11:52:12;1.50;;;1.40;;
13309;SDS011;6723;48.256;16.402;2023-08-31T11:54:39;3.30;;;1.40;;
13309;SDS011;6723;48.256;16.402;2023-08-31T11:57:07;3.10;;;1.37;;
13309;SDS011;6723;48.256;16.402;2023-08-31T11:59:35;4.17;;;1.30;;
13309;SDS011;6723;48.256;16.402;2023-08-31T12:02:02;2.07;;;1.27;;
13309;SDS011;6723;48.256;16.402;2023-08-31T12:04:32;1.30;;;1.20;;
13309;SDS011;6723;48.256;16.402;2023-08-31T12:07:01;2.13;;;1.60;;
13309;SDS011;6723;48.256;16.402;2023-08-31T12:09:31;2.80;;;1.47;;
13309;SDS011;6723;48.256;16.402;2023-08-31T12:11:57;2.03;;;1.63;;
13309;SDS011;6723;48.256;16.402;2023-08-31T12:14:25;1.40;;;1.30;;
13309;SDS011;6723;48.256;16.402;2023-08-31T12:16:52;1.77;;;1.30;;
13309;SDS011;6723;48.256;16.402;2023-08-31T12:19:28;3.23;;;1.47;;
13309;SDS011;6723;48.256;16.402;2023-08-31T12:21:56;3.10;;;1.43;;
13309;SDS011;6723;48.256;16.402;2023-08-31T12:24:22;2.97;;;1.40;;
13309;SDS011;6723;48.256;16.402;2023-08-31T12:26:49;3.67;;;1.33;;
13309;SDS011;6723;48.256;16.402;2023-08-31T12:29:16;1.40;;;1.20;;
13309;SDS011;6723;48.256;16.402;2023-08-31T12:31:42;1.97;;;1.40;;
13309;SDS011;6723;48.256;16.402;2023-08-31T12:34:08;2.87;;;1.33;;
13309;SDS011;6723;48.256;16.402;2023-08-31T12:36:35;3.03;;;1.47;;
13309;SDS011;6723;48.256;16.402;2023-08-31T12:39:06;1.87;;;1.30;;
13309;SDS011;6723;48.256;16.402;2023-08-31T12:41:35;3.23;;;1.43;;
13309;SDS011;6723;48.256;16.402;2023-08-31T12:44:05;3.23;;;1.40;;
13309;SDS011;6723;48.256;16.402;2023-08-31T12:46:32;1.90;;;1.50;;
13309;SDS011;6723;48.256;16.402;2023-08-31T12:48:58;3.20;;;1.50;;
13309;SDS011;6723;48.256;16.402;2023-08-31T12:51:26;1.43;;;1.30;;
13309;SDS011;6723;48.256;16.402;2023-08-31T12:53:53;1.80;;;1.60;;
13309;SDS011;6723;48.256;16.402;2023-08-31T12:56:18;1.70;;;1.37;;
13309;SDS011;6723;48.256;16.402;2023-08-31T12:58:50;1.47;;;1.37;;
13309;SDS011;6723;48.256;16.402;2023-08-31T13:01:17;3.60;;;1.40;;
13309;SDS011;6723;48.256;16.402;2023-08-31T13:03:44;3.67;;;1.63;;
13309;SDS011;6723;48.256;16.402;2023-08-31T13:06:12;1.80;;;1.40;;
13309;SDS011;6723;48.256;16.402;2023-08-31T13:08:46;1.97;;;1.50;;
13309;SDS011;6723;48.256;16.402;2023-08-31T13:11:12;1.67;;;1.33;;
13309;SDS011;6723;48.256;16.402;2023-08-31T13:13:38;2.83;;;1.50;;
13309;SDS011;6723;48.256;16.402;2023-08-31T13:16:04;2.50;;;1.70;;
13309;SDS011;6723;48.256;16.402;2023-08-31T13:18:30;2.80;;;1.50;;
13309;SDS011;6723;48.256;16.402;2023-08-31T13:20:56;2.63;;;1.57;;
13309;SDS011;6723;48.256;16.402;2023-08-31T13:23:22;2.17;;;1.47;;
13309;SDS011;6723;48.256;16.402;2023-08-31T13:25:48;3.47;;;1.50;;
13309;SDS011;6723;48.256;16.402;2023-08-31T13:28:15;1.83;;;1.50;;
13309;SDS011;6723;48.256;16.402;2023-08-31T13:30:41;2.43;;;1.40;;
13309;SDS011;6723;48.256;16.402;2023-08-31T13:33:07;3.10;;;1.53;;
13309;SDS011;6723;48.256;16.402;2023-08-31T13:35:34;3.13;;;1.70;;
13309;SDS011;6723;48.256;16.402;2023-08-31T13:38:01;4.10;;;1.50;;
13309;SDS011;6723;48.256;16.402;2023-08-31T13:40:28;3.20;;;1.80;;
13309;SDS011;6723;48.256;16.402;2023-08-31T13:42:55;2.70;;;1.57;;
13309;SDS011;6723;48.256;16.402;2023-08-31T13:45:24;2.80;;;1.67;;
13309;SDS011;6723;48.256;16.402;2023-08-31T13:47:51;2.67;;;1.70;;
13309;SDS011;6723;48.256;16.402;2023-08-31T13:50:17;2.33;;;1.53;;
13309;SDS011;6723;48.256;16.402;2023-08-31T13:52:43;2.03;;;1.53;;
13309;SDS011;6723;48.256;16.402;2023-08-31T13:55:08;2.90;;;1.80;;
13309;SDS011;6723;48.256;16.402;2023-08-31T13:57:34;2.63;;;1.67;;
13309;SDS011;6723;48.256;16.402;2023-08-31T14:00:00;3.10;;;1.70;;
13309;SDS011;6723;48.256;16.402;2023-08-31T14:02:27;2.17;;;1.70;;
13309;SDS011;6723;48.256;16.402;2023-08-31T14:04:52;1.63;;;1.47;;
13309;SDS011;6723;48.256;16.402;2023-08-31T14:07:19;2.63;;;1.50;;
13309;SDS011;6723;48.256;16.402;2023-08-31T14:09:45;2.17;;;1.40;;
13309;SDS011;6723;48.256;16.402;2023-08-31T14:12:10;1.90;;;1.60;;
13309;SDS011;6723;48.256;16.402;2023-08-31T14:14:36;2.33;;;2.13;;
13309;SDS011;6723;48.256;16.402;2023-08-31T14:17:03;2.53;;;1.77;;
13309;SDS011;6723;48.256;16.402;2023-08-31T14:19:29;2.70;;;1.40;;
13309;SDS011;6723;48.256;16.402;2023-08-31T14:21:54;1.83;;;1.33;;
13309;SDS011;6723;48.256;16.402;2023-08-31T14:24:21;2.13;;;1.67;;
13309;SDS011;6723;48.256;16.402;2023-08-31T14:26:47;1.77;;;1.63;;
13309;SDS011;6723;48.256;16.402;2023-08-31T14:29:12;2.87;;;1.60;;
13309;SDS011;6723;48.256;16.402;2023-08-31T14:31:38;2.40;;;1.70;;
13309;SDS011;6723;48.256;16.402;2023-08-31T14:34:04;4.70;;;1.70;;
13309;SDS011;6723;48.256;16.402;2023-08-31T14:36:30;4.97;;;1.80;;
13309;SDS011;6723;48.256;16.402;2023-08-31T14:38:55;2.70;;;1.60;;
13309;SDS011;6723;48.256;16.402;2023-08-31T14:41:21;3.33;;;1.60;;
13309;SDS011;6723;48.256;16.402;2023-08-31T14:43:47;2.27;;;1.70;;
13309;SDS011;6723;48.256;16.402;2023-08-31T14:46:13;2.03;;;1.83;;
13309;SDS011;6723;48.256;16.402;2023-08-31T14:48:38;2.90;;;1.73;;
13309;SDS011;6723;48.256;16.402;2023-08-31T14:51:04;2.50;;;1.90;;
13309;SDS011;6723;48.256;16.402;2023-08-31T14:53:30;3.00;;;1.97;;
13309;SDS011;6723;48.256;16.402;2023-08-31T14:55:56;1.93;;;1.50;;
13309;SDS011;6723;48.256;16.402;2023-08-31T14:58:21;1.97;;;1.57;;
13309;SDS011;6723;48.256;16.402;2023-08-31T15:00:47;4.83;;;1.73;;
13309;SDS011;6723;48.256;16.402;2023-08-31T15:03:13;1.80;;;1.43;;
13309;SDS011;6723;48.256;16.402;2023-08-31T15:05:39;1.73;;;1.63;;
13309;SDS011;6723;48.256;16.402;2023-08-31T15:08:07;3.37;;;1.77;;